sensor_id;sensor_type;location;lat;lon;timestamp;pressure;altitude;pressure_sealevel;temperature;humidity
17785;BME280;9016;53.582;10.062;2023-10-19T00:02:14;100222.69;;;9.63;69.88
17785;BME280;9016;53.582;10.062;2023-10-19T00:04:46;100205.19;;;9.73;69.76
17785;BME280;9016;53.582;10.062;2023-10-19T00:07:17;100201.94;;;9.68;70.27
17785;BME280;9016;53.582;10.062;2023-10-19T00:09:45;100195.81;;;9.68;69.61
17785;BME280;9016;53.582;10.062;2023-10-19T00:12:15;100189.22;;;9.73;70.25
17785;BME280;9016;53.582;10.062;2023-10-19T00:14:43;100198.78;;;9.76;70.10
17785;BME280;9016;53.582;10.062;2023-10-19T00:17:10;100176.72;;;9.61;69.70
17785;BME280;9016;53.582;10.062;2023-10-19T00:19:38;100169.81;;;9.59;69.83
17785;BME280;9016;53.582;10.062;2023-10-19T00:22:08;100169.75;;;9.73;69.77
17785;BME280;9016;53.582;10.062;2023-10-19T00:24:43;100176.59;;;9.63;70.18
17785;BME280;9016;53.582;10.062;2023-10-19T00:27:11;100168.34;;;9.67;69.78
17785;BME280;9016;53.582;10.062;2023-10-19T00:29:44;100162.16;;;9.67;69.65
17785;BME280;9016;53.582;10.062;2023-10-19T00:32:16;100163.66;;;9.71;70.50
17785;BME280;9016;53.582;10.062;2023-10-19T00:34:45;100162.25;;;9.65;69.86
17785;BME280;9016;53.582;10.062;2023-10-19T00:37:21;100157.47;;;9.70;69.83
17785;BME280;9016;53.582;10.062;2023-10-19T00:39:55;100157.75;;;9.80;69.32
17785;BME280;9016;53.582;10.062;2023-10-19T00:42:40;100160.00;;;9.86;69.09
17785;BME280;9016;53.582;10.062;2023-10-19T00:45:16;100149.47;;;9.84;68.96
17785;BME280;9016;53.582;10.062;2023-10-19T00:47:51;100143.56;;;9.79;69.43
17785;BME280;9016;53.582;10.062;2023-10-19T00:50:20;100135.81;;;9.76;69.61
17785;BME280;9016;53.582;10.062;2023-10-19T00:52:49;100140.06;;;9.66;69.49
17785;BME280;9016;53.582;10.062;2023-10-19T00:55:19;100135.09;;;9.87;69.83
17785;BME280;9016;53.582;10.062;2023-10-19T00:57:48;100132.63;;;9.84;69.56
17785;BME280;9016;53.582;10.062;2023-10-19T01:00:18;100128.19;;;9.84;69.15
17785;BME280;9016;53.582;10.062;2023-10-19T01:02:57;100132.63;;;9.84;69.38
17785;BME280;9016;53.582;10.062;2023-10-19T01:05:30;100135.59;;;9.79;69.84
17785;BME280;9016;53.582;10.062;2023-10-19T01:08:03;100133.19;;;9.89;69.20
17785;BME280;9016;53.582;10.062;2023-10-19T01:10:42;100126.59;;;9.94;68.50
17785;BME280;9016;53.582;10.062;2023-10-19T01:13:12;100109.84;;;9.80;68.92
17785;BME280;9016;53.582;10.062;2023-10-19T01:15:43;100114.00;;;9.84;69.51
17785;BME280;9016;53.582;10.062;2023-10-19T01:18:16;100094.13;;;9.89;69.24
17785;BME280;9016;53.582;10.062;2023-10-19T01:20:44;100095.75;;;9.92;69.14
17785;BME280;9016;53.582;10.062;2023-10-19T01:23:18;100093.06;;;9.92;69.25
17785;BME280;9016;53.582;10.062;2023-10-19T01:25:54;100081.97;;;9.85;69.39
17785;BME280;9016;53.582;10.062;2023-10-19T01:28:33;100084.53;;;9.87;69.08
17785;BME280;9016;53.582;10.062;2023-10-19T01:31:16;100075.50;;;9.89;68.64
17785;BME280;9016;53.582;10.062;2023-10-19T01:33:49;100076.03;;;9.94;68.26
17785;BME280;9016;53.582;10.062;2023-10-19T01:36:22;100072.63;;;9.92;68.96
17785;BME280;9016;53.582;10.062;2023-10-19T01:38:55;100073.38;;;9.94;69.23
17785;BME280;9016;53.582;10.062;2023-10-19T01:41:28;100063.28;;;9.99;68.30
17785;BME280;9016;53.582;10.062;2023-10-19T01:43:57;100056.69;;;10.05;68.02
17785;BME280;9016;53.582;10.062;2023-10-19T01:46:32;100060.06;;;9.94;68.51
17785;BME280;9016;53.582;10.062;2023-10-19T01:49:02;100049.31;;;9.96;68.15
17785;BME280;9016;53.582;10.062;2023-10-19T01:51:32;100046.22;;;9.89;68.87
17785;BME280;9016;53.582;10.062;2023-10-19T01:54:06;100034.09;;;9.98;68.03
17785;BME280;9016;53.582;10.062;2023-10-19T01:56:34;100032.28;;;9.98;68.74
17785;BME280;9016;53.582;10.062;2023-10-19T01:59:06;100025.56;;;9.93;68.99
17785;BME280;9016;53.582;10.062;2023-10-19T02:01:34;100021.53;;;9.87;68.87
17785;BME280;9016;53.582;10.062;2023-10-19T02:04:06;100018.34;;;9.95;69.02
17785;BME280;9016;53.582;10.062;2023-10-19T02:06:36;100018.34;;;9.95;68.65
17785;BME280;9016;53.582;10.062;2023-10-19T02:09:08;100014.28;;;10.02;68.53
17785;BME280;9016;53.582;10.062;2023-10-19T02:11:45;100020.38;;;9.91;68.56
17785;BME280;9016;53.582;10.062;2023-10-19T02:14:15;100028.25;;;9.93;68.58
17785;BME280;9016;53.582;10.062;2023-10-19T02:16:43;100016.22;;;10.00;68.63
17785;BME280;9016;53.582;10.062;2023-10-19T02:19:13;100011.13;;;10.10;68.68
17785;BME280;9016;53.582;10.062;2023-10-19T02:21:41;100001.50;;;10.07;67.83
17785;BME280;9016;53.582;10.062;2023-10-19T02:24:10;99999.63;;;10.09;68.14
17785;BME280;9016;53.582;10.062;2023-10-19T02:26:41;100013.13;;;10.06;67.73
17785;BME280;9016;53.582;10.062;2023-10-19T02:29:10;100002.91;;;10.00;67.75
17785;BME280;9016;53.582;10.062;2023-10-19T02:31:39;99993.13;;;10.00;67.96
17785;BME280;9016;53.582;10.062;2023-10-19T02:34:08;99990.22;;;10.03;68.02
17785;BME280;9016;53.582;10.062;2023-10-19T02:36:38;100004.81;;;9.98;67.98
17785;BME280;9016;53.582;10.062;2023-10-19T02:39:08;99992.47;;;9.97;67.52
17785;BME280;9016;53.582;10.062;2023-10-19T02:41:39;99996.94;;;9.96;67.61
17785;BME280;9016;53.582;10.062;2023-10-19T02:44:08;99991.44;;;9.99;67.54
17785;BME280;9016;53.582;10.062;2023-10-19T02:46:41;99992.59;;;9.83;68.22
17785;BME280;9016;53.582;10.062;2023-10-19T02:49:11;100002.59;;;9.92;67.75
17785;BME280;9016;53.582;10.062;2023-10-19T02:51:39;100001.50;;;9.94;67.89
17785;BME280;9016;53.582;10.062;2023-10-19T02:54:08;99998.44;;;9.88;68.31
17785;BME280;9016;53.582;10.062;2023-10-19T02:56:44;99990.75;;;9.96;67.58
17785;BME280;9016;53.582;10.062;2023-10-19T02:59:14;99997.56;;;10.00;67.53
17785;BME280;9016;53.582;10.062;2023-10-19T03:01:43;99998.31;;;10.02;67.42
17785;BME280;9016;53.582;10.062;2023-10-19T03:04:11;99990.34;;;10.02;67.31
17785;BME280;9016;53.582;10.062;2023-10-19T03:06:40;99984.72;;;10.07;67.38
17785;BME280;9016;53.582;10.062;2023-10-19T03:09:08;99982.78;;;10.09;67.40
17785;BME280;9016;53.582;10.062;2023-10-19T03:11:42;99976.59;;;10.08;67.18
17785;BME280;9016;53.582;10.062;2023-10-19T03:14:11;99975.38;;;10.14;66.96
17785;BME280;9016;53.582;10.062;2023-10-19T03:16:39;99982.38;;;10.15;67.32
17785;BME280;9016;53.582;10.062;2023-10-19T03:19:09;99975.75;;;10.08;66.91
17785;BME280;9016;53.582;10.062;2023-10-19T03:21:38;99979.06;;;10.11;66.93
17785;BME280;9016;53.582;10.062;2023-10-19T03:24:09;99971.41;;;10.07;67.14
17785;BME280;9016;53.582;10.062;2023-10-19T03:26:49;99966.91;;;10.07;66.65
17785;BME280;9016;53.582;10.062;2023-10-19T03:29:18;99957.78;;;10.11;66.57
17785;BME280;9016;53.582;10.062;2023-10-19T03:31:49;99954.94;;;10.14;66.67
17785;BME280;9016;53.582;10.062;2023-10-19T03:34:18;99955.13;;;10.11;66.85
17785;BME280;9016;53.582;10.062;2023-10-19T03:36:46;99948.50;;;10.04;67.11
17785;BME280;9016;53.582;10.062;2023-10-19T03:39:14;99953.59;;;10.07;66.72
17785;BME280;9016;53.582;10.062;2023-10-19T03:41:42;99968.09;;;10.03;67.58
17785;BME280;9016;53.582;10.062;2023-10-19T03:44:11;99953.94;;;10.15;68.35
17785;BME280;9016;53.582;10.062;2023-10-19T03:46:47;99959.69;;;10.09;70.01
17785;BME280;9016;53.582;10.062;2023-10-19T03:49:23;99950.66;;;9.99;70.79
17785;BME280;9016;53.582;10.062;2023-10-19T03:51:53;99948.63;;;9.90;72.01
17785;BME280;9016;53.582;10.062;2023-10-19T03:54:47;99941.59;;;9.89;73.05
17785;BME280;9016;53.582;10.062;2023-10-19T03:57:17;99948.75;;;9.88;72.75
17785;BME280;9016;53.582;10.062;2023-10-19T03:59:50;99943.50;;;9.87;73.87
17785;BME280;9016;53.582;10.062;2023-10-19T04:02:22;99941.81;;;9.86;74.83
17785;BME280;9016;53.582;10.062;2023-10-19T04:04:51;99935.75;;;9.59;76.19
17785;BME280;9016;53.582;10.062;2023-10-19T04:07:23;99939.16;;;9.61;77.08
17785;BME280;9016;53.582;10.062;2023-10-19T04:09:53;99929.38;;;9.61;77.31
17785;BME280;9016;53.582;10.062;2023-10-19T04:12:41;99917.34;;;9.56;77.77
17785;BME280;9016;53.582;10.062;2023-10-19T04:15:10;99915.13;;;9.50;78.85
17785;BME280;9016;53.582;10.062;2023-10-19T04:17:43;99910.97;;;9.46;78.96
17785;BME280;9016;53.582;10.062;2023-10-19T04:20:13;99916.47;;;9.43;79.49
17785;BME280;9016;53.582;10.062;2023-10-19T04:22:55;99910.84;;;9.35;80.08
17785;BME280;9016;53.582;10.062;2023-10-19T04:25:25;99922.44;;;9.34;80.14
17785;BME280;9016;53.582;10.062;2023-10-19T04:27:53;99916.69;;;9.40;81.10
17785;BME280;9016;53.582;10.062;2023-10-19T04:30:24;99926.47;;;9.39;80.85
17785;BME280;9016;53.582;10.062;2023-10-19T04:32:54;99910.50;;;9.27;81.74
17785;BME280;9016;53.582;10.062;2023-10-19T04:35:25;99904.78;;;9.33;81.47
17785;BME280;9016;53.582;10.062;2023-10-19T04:37:57;99908.81;;;9.26;82.19
17785;BME280;9016;53.582;10.062;2023-10-19T04:40:25;99908.38;;;9.32;82.00
17785;BME280;9016;53.582;10.062;2023-10-19T04:42:54;99912.75;;;9.33;82.54
17785;BME280;9016;53.582;10.062;2023-10-19T04:45:22;99922.53;;;9.32;82.30
17785;BME280;9016;53.582;10.062;2023-10-19T04:47:50;99919.47;;;9.26;82.60
17785;BME280;9016;53.582;10.062;2023-10-19T04:50:21;99910.50;;;9.14;83.17
17785;BME280;9016;53.582;10.062;2023-10-19T04:52:49;99900.91;;;9.12;83.35
17785;BME280;9016;53.582;10.062;2023-10-19T04:55:17;99912.00;;;9.18;83.86
17785;BME280;9016;53.582;10.062;2023-10-19T04:57:46;99897.84;;;9.18;84.37
17785;BME280;9016;53.582;10.062;2023-10-19T05:00:14;99905.81;;;9.05;84.15
17785;BME280;9016;53.582;10.062;2023-10-19T05:02:43;99900.38;;;9.07;84.61
17785;BME280;9016;53.582;10.062;2023-10-19T05:05:11;99888.75;;;8.95;84.23
17785;BME280;9016;53.582;10.062;2023-10-19T05:07:42;99894.19;;;8.93;85.50
17785;BME280;9016;53.582;10.062;2023-10-19T05:10:10;99896.44;;;8.99;85.73
17785;BME280;9016;53.582;10.062;2023-10-19T05:12:39;99873.38;;;9.00;85.40
17785;BME280;9016;53.582;10.062;2023-10-19T05:15:07;99877.44;;;9.06;85.80
17785;BME280;9016;53.582;10.062;2023-10-19T05:17:35;99870.41;;;9.05;85.37
17785;BME280;9016;53.582;10.062;2023-10-19T05:20:04;99880.16;;;8.91;85.96
17785;BME280;9016;53.582;10.062;2023-10-19T05:22:34;99869.97;;;8.98;86.46
17785;BME280;9016;53.582;10.062;2023-10-19T05:25:04;99879.22;;;8.92;85.03
17785;BME280;9016;53.582;10.062;2023-10-19T05:27:34;99863.91;;;8.96;86.06
17785;BME280;9016;53.582;10.062;2023-10-19T05:30:03;99869.53;;;9.04;86.53
17785;BME280;9016;53.582;10.062;2023-10-19T05:32:31;99867.09;;;9.01;85.60
17785;BME280;9016;53.582;10.062;2023-10-19T05:35:00;99868.50;;;9.07;85.25
17785;BME280;9016;53.582;10.062;2023-10-19T05:37:31;99860.22;;;9.11;85.48
17785;BME280;9016;53.582;10.062;2023-10-19T05:40:00;99862.75;;;9.00;85.77
17785;BME280;9016;53.582;10.062;2023-10-19T05:42:33;99857.56;;;9.11;85.73
17785;BME280;9016;53.582;10.062;2023-10-19T05:45:01;99854.56;;;9.03;86.36
17785;BME280;9016;53.582;10.062;2023-10-19T05:47:29;99853.19;;;8.97;85.70
17785;BME280;9016;53.582;10.062;2023-10-19T05:49:57;99849.38;;;9.02;85.99
17785;BME280;9016;53.582;10.062;2023-10-19T05:52:26;99847.75;;;8.86;85.88
17785;BME280;9016;53.582;10.062;2023-10-19T05:54:54;99847.22;;;8.94;86.38
17785;BME280;9016;53.582;10.062;2023-10-19T05:57:24;99855.75;;;9.12;85.77
17785;BME280;9016;53.582;10.062;2023-10-19T05:59:53;99855.75;;;9.12;85.28
17785;BME280;9016;53.582;10.062;2023-10-19T06:02:21;99838.97;;;9.11;84.81
17785;BME280;9016;53.582;10.062;2023-10-19T06:04:58;99850.41;;;8.99;85.47
17785;BME280;9016;53.582;10.062;2023-10-19T06:07:28;99845.75;;;9.02;85.25
17785;BME280;9016;53.582;10.062;2023-10-19T06:09:57;99842.34;;;9.00;85.91
17785;BME280;9016;53.582;10.062;2023-10-19T06:12:27;99834.91;;;9.06;85.73
17785;BME280;9016;53.582;10.062;2023-10-19T06:14:57;99835.63;;;9.08;86.51
17785;BME280;9016;53.582;10.062;2023-10-19T06:17:25;99834.47;;;9.12;85.96
17785;BME280;9016;53.582;10.062;2023-10-19T06:19:55;99831.63;;;9.15;87.01
17785;BME280;9016;53.582;10.062;2023-10-19T06:22:23;99837.25;;;9.10;86.19
17785;BME280;9016;53.582;10.062;2023-10-19T06:24:51;99832.34;;;9.04;85.78
17785;BME280;9016;53.582;10.062;2023-10-19T06:27:19;99833.94;;;9.07;85.85
17785;BME280;9016;53.582;10.062;2023-10-19T06:29:47;99831.72;;;9.13;85.88
17785;BME280;9016;53.582;10.062;2023-10-19T06:32:17;99832.78;;;9.11;85.40
17785;BME280;9016;53.582;10.062;2023-10-19T06:34:46;99837.66;;;9.04;86.46
17785;BME280;9016;53.582;10.062;2023-10-19T06:37:14;99833.72;;;8.84;86.69
17785;BME280;9016;53.582;10.062;2023-10-19T06:39:42;99840.75;;;8.98;86.41
17785;BME280;9016;53.582;10.062;2023-10-19T06:42:11;99836.72;;;9.05;86.81
17785;BME280;9016;53.582;10.062;2023-10-19T06:44:41;99844.81;;;9.04;86.49
17785;BME280;9016;53.582;10.062;2023-10-19T06:47:10;99847.34;;;9.18;85.75
17785;BME280;9016;53.582;10.062;2023-10-19T06:49:41;99844.47;;;9.08;84.85
17785;BME280;9016;53.582;10.062;2023-10-19T06:52:10;99853.41;;;9.07;86.69
17785;BME280;9016;53.582;10.062;2023-10-19T06:54:38;99853.72;;;9.02;86.37
17785;BME280;9016;53.582;10.062;2023-10-19T06:57:06;99854.06;;;9.11;86.66
17785;BME280;9016;53.582;10.062;2023-10-19T06:59:35;99850.19;;;9.02;86.67
17785;BME280;9016;53.582;10.062;2023-10-19T07:02:03;99854.06;;;9.11;86.80
17785;BME280;9016;53.582;10.062;2023-10-19T07:04:34;99859.38;;;9.11;86.27
17785;BME280;9016;53.582;10.062;2023-10-19T07:07:04;99848.09;;;9.20;86.77
17785;BME280;9016;53.582;10.062;2023-10-19T07:09:32;99848.50;;;9.14;86.97
17785;BME280;9016;53.582;10.062;2023-10-19T07:12:01;99840.25;;;9.18;86.19
17785;BME280;9016;53.582;10.062;2023-10-19T07:14:32;99849.16;;;9.17;87.29
17785;BME280;9016;53.582;10.062;2023-10-19T07:17:00;99845.03;;;9.26;85.63
17785;BME280;9016;53.582;10.062;2023-10-19T07:19:28;99851.41;;;9.23;86.13
17785;BME280;9016;53.582;10.062;2023-10-19T07:21:56;99841.94;;;9.32;86.61
17785;BME280;9016;53.582;10.062;2023-10-19T07:24:26;99839.28;;;9.32;86.44
17785;BME280;9016;53.582;10.062;2023-10-19T07:26:55;99832.50;;;9.28;86.48
17785;BME280;9016;53.582;10.062;2023-10-19T07:29:31;99846.09;;;9.23;85.96
17785;BME280;9016;53.582;10.062;2023-10-19T07:32:00;99851.63;;;9.33;86.15
17785;BME280;9016;53.582;10.062;2023-10-19T07:34:31;99855.22;;;9.32;85.92
17785;BME280;9016;53.582;10.062;2023-10-19T07:37:00;99863.22;;;9.44;85.72
17785;BME280;9016;53.582;10.062;2023-10-19T07:39:30;99858.84;;;9.43;85.30
17785;BME280;9016;53.582;10.062;2023-10-19T07:42:00;99863.81;;;9.35;86.24
17785;BME280;9016;53.582;10.062;2023-10-19T07:44:31;99854.06;;;9.36;86.06
17785;BME280;9016;53.582;10.062;2023-10-19T07:46:59;99858.31;;;9.26;85.65
17785;BME280;9016;53.582;10.062;2023-10-19T07:49:27;99851.50;;;9.34;86.07
17785;BME280;9016;53.582;10.062;2023-10-19T07:51:56;99847.56;;;9.15;86.57
17785;BME280;9016;53.582;10.062;2023-10-19T07:54:24;99843.31;;;9.12;86.84
17785;BME280;9016;53.582;10.062;2023-10-19T07:56:55;99840.53;;;9.01;87.95
17785;BME280;9016;53.582;10.062;2023-10-19T07:59:24;99837.34;;;9.09;88.96
17785;BME280;9016;53.582;10.062;2023-10-19T08:01:52;99824.50;;;9.15;88.92
17785;BME280;9016;53.582;10.062;2023-10-19T08:04:20;99829.72;;;9.17;88.61
17785;BME280;9016;53.582;10.062;2023-10-19T08:06:48;99832.91;;;9.22;88.80
17785;BME280;9016;53.582;10.062;2023-10-19T08:09:16;99837.34;;;9.21;87.48
17785;BME280;9016;53.582;10.062;2023-10-19T08:11:49;99838.53;;;9.30;88.29
17785;BME280;9016;53.582;10.062;2023-10-19T08:14:23;99836.59;;;9.32;88.91
17785;BME280;9016;53.582;10.062;2023-10-19T08:16:51;99833.53;;;9.25;88.13
17785;BME280;9016;53.582;10.062;2023-10-19T08:19:20;99823.97;;;9.10;88.73
17785;BME280;9016;53.582;10.062;2023-10-19T08:21:48;99810.38;;;9.15;88.60
17785;BME280;9016;53.582;10.062;2023-10-19T08:24:16;99818.22;;;9.29;89.56
17785;BME280;9016;53.582;10.062;2023-10-19T08:26:45;99810.47;;;9.26;88.34
17785;BME280;9016;53.582;10.062;2023-10-19T08:29:13;99809.50;;;9.27;88.84
17785;BME280;9016;53.582;10.062;2023-10-19T08:31:43;99796.66;;;9.33;88.83
17785;BME280;9016;53.582;10.062;2023-10-19T08:34:12;99782.69;;;9.30;89.20
17785;BME280;9016;53.582;10.062;2023-10-19T08:36:40;99779.22;;;9.17;89.12
17785;BME280;9016;53.582;10.062;2023-10-19T08:39:09;99796.84;;;9.18;90.11
17785;BME280;9016;53.582;10.062;2023-10-19T08:41:39;99800.16;;;9.21;90.72
17785;BME280;9016;53.582;10.062;2023-10-19T08:44:08;99812.78;;;9.30;91.00
17785;BME280;9016;53.582;10.062;2023-10-19T08:46:40;99807.91;;;9.24;89.80
17785;BME280;9016;53.582;10.062;2023-10-19T08:49:11;99821.09;;;9.26;90.28
17785;BME280;9016;53.582;10.062;2023-10-19T08:51:43;99811.00;;;9.43;90.11
17785;BME280;9016;53.582;10.062;2023-10-19T08:54:12;99811.75;;;9.33;90.44
17785;BME280;9016;53.582;10.062;2023-10-19T08:56:41;99810.47;;;9.38;90.32
17785;BME280;9016;53.582;10.062;2023-10-19T08:59:09;99802.59;;;9.49;89.87
17785;BME280;9016;53.582;10.062;2023-10-19T09:01:38;99805.44;;;9.59;88.99
17785;BME280;9016;53.582;10.062;2023-10-19T09:04:06;99808.31;;;9.56;88.58
17785;BME280;9016;53.582;10.062;2023-10-19T09:06:36;99810.34;;;9.52;88.48
17785;BME280;9016;53.582;10.062;2023-10-19T09:09:08;99813.09;;;9.51;88.86
17785;BME280;9016;53.582;10.062;2023-10-19T09:11:43;99820.13;;;9.52;89.22
17785;BME280;9016;53.582;10.062;2023-10-19T09:14:11;99830.03;;;9.50;89.34
17785;BME280;9016;53.582;10.062;2023-10-19T09:16:53;99820.00;;;9.41;88.92
17785;BME280;9016;53.582;10.062;2023-10-19T09:19:35;99819.91;;;9.55;89.45
17785;BME280;9016;53.582;10.062;2023-10-19T09:22:05;99820.00;;;9.41;89.09
17785;BME280;9016;53.582;10.062;2023-10-19T09:24:44;99828.97;;;9.40;89.08
17785;BME280;9016;53.582;10.062;2023-10-19T09:27:13;99815.91;;;9.37;90.26
17785;BME280;9016;53.582;10.062;2023-10-19T09:29:44;99808.97;;;9.34;91.12
17785;BME280;9016;53.582;10.062;2023-10-19T09:32:12;99807.19;;;9.35;90.49
17785;BME280;9016;53.582;10.062;2023-10-19T09:34:44;99807.06;;;9.36;90.89
17785;BME280;9016;53.582;10.062;2023-10-19T09:37:16;99806.50;;;9.56;90.28
17785;BME280;9016;53.582;10.062;2023-10-19T09:39:44;99816.84;;;9.61;89.68
17785;BME280;9016;53.582;10.062;2023-10-19T09:42:14;99830.22;;;9.47;88.61
17785;BME280;9016;53.582;10.062;2023-10-19T09:44:47;99824.91;;;9.34;89.63
17785;BME280;9016;53.582;10.062;2023-10-19T09:47:22;99825.91;;;9.33;90.48
17785;BME280;9016;53.582;10.062;2023-10-19T09:49:53;99805.16;;;9.38;90.15
17785;BME280;9016;53.582;10.062;2023-10-19T09:52:23;99801.22;;;9.31;89.23
17785;BME280;9016;53.582;10.062;2023-10-19T09:54:59;99806.19;;;9.36;89.62
17785;BME280;9016;53.582;10.062;2023-10-19T09:57:33;99819.19;;;9.28;89.45
17785;BME280;9016;53.582;10.062;2023-10-19T10:00:04;99827.88;;;9.30;89.05
17785;BME280;9016;53.582;10.062;2023-10-19T10:02:39;99841.00;;;9.33;89.19
17785;BME280;9016;53.582;10.062;2023-10-19T10:05:47;99839.81;;;9.49;89.14
17785;BME280;9016;53.582;10.062;2023-10-19T10:08:32;99845.66;;;9.42;88.79
17785;BME280;9016;53.582;10.062;2023-10-19T10:11:14;99852.66;;;9.43;88.39
17785;BME280;9016;53.582;10.062;2023-10-19T10:13:43;99849.25;;;9.41;88.74
17785;BME280;9016;53.582;10.062;2023-10-19T10:16:13;99841.00;;;9.33;88.73
17785;BME280;9016;53.582;10.062;2023-10-19T10:18:43;99850.47;;;9.37;89.60
17785;BME280;9016;53.582;10.062;2023-10-19T10:21:12;99838.00;;;9.50;91.24
17785;BME280;9016;53.582;10.062;2023-10-19T10:23:44;99836.28;;;9.61;90.29
17785;BME280;9016;53.582;10.062;2023-10-19T10:26:14;99840.94;;;9.70;89.26
17785;BME280;9016;53.582;10.062;2023-10-19T10:28:46;99824.69;;;9.62;88.02
17785;BME280;9016;53.582;10.062;2023-10-19T10:31:20;99817.97;;;9.69;88.48
17785;BME280;9016;53.582;10.062;2023-10-19T10:33:49;99808.94;;;9.59;88.55
17785;BME280;9016;53.582;10.062;2023-10-19T10:36:19;99815.03;;;9.49;88.99
17785;BME280;9016;53.582;10.062;2023-10-19T10:38:50;99820.84;;;9.54;89.32
17785;BME280;9016;53.582;10.062;2023-10-19T10:41:22;99809.06;;;9.58;88.91
17785;BME280;9016;53.582;10.062;2023-10-19T10:43:53;99806.00;;;9.51;89.33
17785;BME280;9016;53.582;10.062;2023-10-19T10:46:22;99809.88;;;9.71;88.63
17785;BME280;9016;53.582;10.062;2023-10-19T10:48:51;99814.03;;;9.75;88.57
17785;BME280;9016;53.582;10.062;2023-10-19T10:51:21;99805.00;;;9.65;88.50
17785;BME280;9016;53.582;10.062;2023-10-19T10:53:51;99808.03;;;9.48;87.85
17785;BME280;9016;53.582;10.062;2023-10-19T10:56:21;99807.16;;;9.47;89.32
17785;BME280;9016;53.582;10.062;2023-10-19T10:58:50;99800.97;;;9.59;88.89
17785;BME280;9016;53.582;10.062;2023-10-19T11:01:28;99811.06;;;9.67;88.72
17785;BME280;9016;53.582;10.062;2023-10-19T11:04:07;99795.63;;;9.59;88.61
17785;BME280;9016;53.582;10.062;2023-10-19T11:06:47;99794.34;;;9.65;89.09
17785;BME280;9016;53.582;10.062;2023-10-19T11:09:17;99795.28;;;9.76;89.03
17785;BME280;9016;53.582;10.062;2023-10-19T11:11:49;99806.81;;;9.64;88.15
17785;BME280;9016;53.582;10.062;2023-10-19T11:14:19;99803.81;;;9.69;88.59
17785;BME280;9016;53.582;10.062;2023-10-19T11:16:48;99802.97;;;9.81;88.62
17785;BME280;9016;53.582;10.062;2023-10-19T11:19:16;99811.44;;;9.86;88.10
17785;BME280;9016;53.582;10.062;2023-10-19T11:21:54;99820.28;;;9.74;87.77
17785;BME280;9016;53.582;10.062;2023-10-19T11:24:27;99825.84;;;9.71;88.48
17785;BME280;9016;53.582;10.062;2023-10-19T11:27:00;99832.69;;;9.62;88.94
17785;BME280;9016;53.582;10.062;2023-10-19T11:29:29;99823.44;;;9.55;89.70
17785;BME280;9016;53.582;10.062;2023-10-19T11:31:57;99822.22;;;9.59;89.88
17785;BME280;9016;53.582;10.062;2023-10-19T11:34:27;99814.06;;;9.62;89.43
17785;BME280;9016;53.582;10.062;2023-10-19T11:36:56;99820.56;;;9.58;89.35
17785;BME280;9016;53.582;10.062;2023-10-19T11:39:28;99817.03;;;9.58;90.48
17785;BME280;9016;53.582;10.062;2023-10-19T11:41:56;99813.81;;;9.65;89.84
17785;BME280;9016;53.582;10.062;2023-10-19T11:44:24;99806.72;;;9.66;90.19
17785;BME280;9016;53.582;10.062;2023-10-19T11:46:52;99793.06;;;9.70;90.36
17785;BME280;9016;53.582;10.062;2023-10-19T11:49:20;99789.22;;;9.74;89.58
17785;BME280;9016;53.582;10.062;2023-10-19T11:51:52;99781.94;;;9.53;89.39
17785;BME280;9016;53.582;10.062;2023-10-19T11:54:20;99771.63;;;9.61;90.54
17785;BME280;9016;53.582;10.062;2023-10-19T11:56:50;99761.78;;;9.74;90.10
17785;BME280;9016;53.582;10.062;2023-10-19T11:59:19;99761.31;;;9.56;90.37
17785;BME280;9016;53.582;10.062;2023-10-19T12:01:47;99748.78;;;9.46;90.75
17785;BME280;9016;53.582;10.062;2023-10-19T12:04:15;99756.22;;;9.41;91.85
17785;BME280;9016;53.582;10.062;2023-10-19T12:06:43;99758.53;;;9.58;90.74
17785;BME280;9016;53.582;10.062;2023-10-19T12:09:12;99752.34;;;9.57;89.58
17785;BME280;9016;53.582;10.062;2023-10-19T12:11:42;99757.66;;;9.70;90.12
17785;BME280;9016;53.582;10.062;2023-10-19T12:14:15;99758.91;;;9.77;88.94
17785;BME280;9016;53.582;10.062;2023-10-19T12:16:43;99744.88;;;9.75;89.87
17785;BME280;9016;53.582;10.062;2023-10-19T12:19:12;99744.97;;;9.73;88.88
17785;BME280;9016;53.582;10.062;2023-10-19T12:21:41;99734.91;;;9.89;89.23
17785;BME280;9016;53.582;10.062;2023-10-19T12:24:10;99734.91;;;9.89;87.48
17785;BME280;9016;53.582;10.062;2023-10-19T12:26:38;99731.88;;;9.70;87.96
17785;BME280;9016;53.582;10.062;2023-10-19T12:29:06;99725.63;;;9.71;88.88
17785;BME280;9016;53.582;10.062;2023-10-19T12:31:39;99729.97;;;9.72;89.12
17785;BME280;9016;53.582;10.062;2023-10-19T12:34:07;99728.72;;;9.65;89.45
17785;BME280;9016;53.582;10.062;2023-10-19T12:36:38;99736.44;;;9.81;89.70
17785;BME280;9016;53.582;10.062;2023-10-19T12:39:08;99727.16;;;9.86;87.87
17785;BME280;9016;53.582;10.062;2023-10-19T12:41:37;99733.00;;;9.91;88.31
17785;BME280;9016;53.582;10.062;2023-10-19T12:44:06;99729.91;;;9.85;87.56
17785;BME280;9016;53.582;10.062;2023-10-19T12:46:36;99725.06;;;9.79;88.18
17785;BME280;9016;53.582;10.062;2023-10-19T12:49:06;99729.28;;;9.81;88.88
17785;BME280;9016;53.582;10.062;2023-10-19T12:51:40;99728.78;;;9.76;89.11
17785;BME280;9016;53.582;10.062;2023-10-19T12:54:09;99725.19;;;9.77;88.73
17785;BME280;9016;53.582;10.062;2023-10-19T12:56:37;99708.25;;;9.78;88.66
17785;BME280;9016;53.582;10.062;2023-10-19T12:59:06;99695.28;;;9.74;88.71
17785;BME280;9016;53.582;10.062;2023-10-19T13:01:34;99704.47;;;9.93;89.02
17785;BME280;9016;53.582;10.062;2023-10-19T13:04:03;99701.69;;;9.95;88.55
17785;BME280;9016;53.582;10.062;2023-10-19T13:06:42;99704.28;;;9.84;88.38
17785;BME280;9016;53.582;10.062;2023-10-19T13:09:10;99709.16;;;9.90;87.97
17785;BME280;9016;53.582;10.062;2023-10-19T13:11:38;99706.25;;;9.93;88.14
17785;BME280;9016;53.582;10.062;2023-10-19T13:14:10;99701.06;;;9.91;87.96
17785;BME280;9016;53.582;10.062;2023-10-19T13:16:38;99709.44;;;9.98;87.93
17785;BME280;9016;53.582;10.062;2023-10-19T13:19:07;99705.47;;;9.80;87.76
17785;BME280;9016;53.582;10.062;2023-10-19T13:21:39;99706.94;;;9.84;87.71
17785;BME280;9016;53.582;10.062;2023-10-19T13:24:10;99692.22;;;9.91;88.20
17785;BME280;9016;53.582;10.062;2023-10-19T13:26:40;99698.34;;;10.04;87.42